Time;durP1;ratioP1;P1;durP2;ratioP2;P2;SDS_P1;SDS_P2;PMS_P1;PMS_P2;Temp;Humidity;BMP_temperature;BMP_pressure;BME280_temperature;BME280_humidity;BME280_pressure;Samples;Min_cycle;Max_cycle;Signal;HPM_P1;HPM_P2
2023/04/13 00:00:09;;;;;;;41.10;24.10;;;;;;;4.17;70.80;99139.46;131267;1253;107534;-77
2023/04/13 00:03:36;;;;;;;41.40;23.60;;;;;;;4.14;70.64;99137.91;131117;1251;108487;-77
2023/04/13 00:06:45;;;;;;;43.80;24.40;;;;;;;4.10;70.81;99141.11;131179;1251;107564;-77
2023/04/13 00:09:51;;;;;;;43.10;24.00;;;;;;;4.09;70.87;99140.86;131127;1251;107213;-77
2023/04/13 00:13:00;;;;;;;44.40;23.50;;;;;;;4.08;70.74;99137.61;131199;1254;107385;-77
2023/04/13 00:16:06;;;;;;;40.80;23.10;;;;;;;4.05;70.83;99135.38;131255;1253;107261;-77
2023/04/13 00:19:12;;;;;;;43.60;23.70;;;;;;;4.05;70.71;99127.70;131280;1253;107569;-74
2023/04/13 00:22:17;;;;;;;43.20;24.80;;;;;;;4.05;71.04;99123.27;131268;1253;107627;-77
2023/04/13 00:25:23;;;;;;;39.90;22.60;;;;;;;4.07;71.12;99119.15;131101;1254;107572;-76
2023/04/13 00:28:29;;;;;;;41.20;23.10;;;;;;;4.07;71.19;99114.98;131210;1256;106743;-77
2023/04/13 00:31:38;;;;;;;39.00;22.50;;;;;;;4.04;71.27;99111.06;130976;1253;192487;-76
2023/04/13 00:34:45;;;;;;;43.80;23.00;;;;;;;4.01;71.08;99106.91;131137;1254;107297;-77
2023/04/13 00:37:50;;;;;;;54.00;26.10;;;;;;;3.98;71.13;99104.93;131168;1253;107466;-77
2023/04/13 00:40:56;;;;;;;57.70;26.90;;;;;;;3.91;71.03;99102.18;131120;1253;106665;-79
2023/04/13 00:44:01;;;;;;;46.50;23.00;;;;;;;3.86;70.98;99100.48;131358;1251;108143;-78
2023/04/13 00:47:07;;;;;;;44.90;23.30;;;;;;;3.83;71.10;99098.98;131172;1248;107584;-78
2023/04/13 00:50:14;;;;;;;34.40;19.30;;;;;;;3.83;71.06;99094.63;131228;1253;107524;-78
2023/04/13 00:53:19;;;;;;;40.00;20.90;;;;;;;3.87;71.17;99094.46;131295;1254;107584;-78
2023/04/13 00:56:27;;;;;;;38.50;21.40;;;;;;;3.92;71.16;99095.08;131224;1254;107633;-78
2023/04/13 00:59:33;;;;;;;37.40;21.50;;;;;;;3.93;71.10;99090.73;131122;1253;107494;-78
2023/04/13 01:02:40;;;;;;;37.30;20.20;;;;;;;3.96;71.22;99087.19;131183;1253;107518;-77
2023/04/13 01:05:54;;;;;;;37.80;20.90;;;;;;;3.97;71.27;99079.88;131133;1252;107415;-77
2023/04/13 01:09:07;;;;;;;39.90;21.50;;;;;;;3.97;71.17;99082.16;131074;1254;108662;-77
2023/04/13 01:12:18;;;;;;;37.80;20.40;;;;;;;3.96;71.42;99075.91;131209;1253;107376;-78
2023/04/13 01:15:26;;;;;;;35.60;21.20;;;;;;;3.91;71.44;99071.86;131081;1257;105888;-78
2023/04/13 01:18:37;;;;;;;37.30;20.70;;;;;;;3.92;71.65;99070.26;131364;1253;107533;-77
2023/04/13 01:21:44;;;;;;;36.70;21.00;;;;;;;3.92;71.78;99072.52;131113;1254;106567;-78
2023/04/13 01:25:00;;;;;;;33.30;19.10;;;;;;;3.91;71.77;99066.42;131098;1251;107426;-77
2023/04/13 01:28:08;;;;;;;36.80;19.60;;;;;;;3.90;71.83;99067.63;131402;1251;107503;-77
2023/04/13 01:31:16;;;;;;;34.30;19.10;;;;;;;3.88;71.70;99067.09;131420;1262;107530;-77
2023/04/13 01:34:23;;;;;;;37.00;19.10;;;;;;;3.88;71.91;99063.92;131229;1253;107435;-75
2023/04/13 01:37:28;;;;;;;36.50;18.50;;;;;;;3.90;71.89;99063.94;131232;1253;106138;-77
2023/04/13 01:40:39;;;;;;;28.80;15.50;;;;;;;3.92;72.12;99067.06;131189;1253;107466;-77
2023/04/13 01:43:45;;;;;;;32.40;18.20;;;;;;;3.96;71.94;99077.28;131267;1257;106775;-78
2023/04/13 01:47:00;;;;;;;35.10;19.20;;;;;;;3.99;71.89;99078.98;131112;1253;107456;-78
2023/04/13 01:50:49;;;;;;;33.50;18.60;;;;;;;4.04;72.03;99076.04;130509;1260;107534;-78
2023/04/13 01:54:09;;;;;;;33.10;17.90;;;;;;;4.08;72.00;99078.66;130398;1271;107453;-78
2023/04/13 01:57:17;;;;;;;31.50;17.90;;;;;;;4.05;72.06;99080.64;131298;1261;107473;-78
2023/04/13 02:00:34;;;;;;;30.90;18.00;;;;;;;4.03;71.91;99083.73;131110;1254;107247;-77
2023/04/13 02:03:44;;;;;;;32.90;18.10;;;;;;;3.99;71.94;99089.32;131220;1258;107421;-77
2023/04/13 02:06:50;;;;;;;32.40;18.30;;;;;;;3.97;71.92;99089.21;131224;1256;107465;-77
2023/04/13 02:10:01;;;;;;;32.00;17.90;;;;;;;3.89;71.95;99091.10;131090;1257;107438;-77
2023/04/13 02:13:08;;;;;;;31.20;17.90;;;;;;;3.78;71.98;99095.80;131219;1253;107542;-77
2023/04/13 02:16:14;;;;;;;31.10;16.80;;;;;;;3.70;71.79;99094.34;131029;1251;107620;-77
2023/04/13 02:19:20;;;;;;;31.60;17.00;;;;;;;3.63;71.65;99100.48;131126;1264;107462;-75
2023/04/13 02:22:26;;;;;;;33.20;19.10;;;;;;;3.53;71.65;99100.29;131151;1257;107427;-77
2023/04/13 02:25:31;;;;;;;31.30;18.30;;;;;;;3.44;71.72;99109.52;131237;1261;107407;-75
2023/04/13 02:28:39;;;;;;;30.70;17.90;;;;;;;3.39;71.68;99110.50;131286;1253;107462;-78
2023/04/13 02:31:45;;;;;;;28.80;17.10;;;;;;;3.33;71.65;99106.80;131358;1253;107624;-77
2023/04/13 02:34:52;;;;;;;31.00;17.30;;;;;;;3.28;71.75;99112.01;131246;1252;107413;-78
2023/04/13 02:37:59;;;;;;;30.30;16.80;;;;;;;3.24;71.63;99113.60;131387;1253;107325;-78
2023/04/13 02:41:05;;;;;;;27.20;14.70;;;;;;;3.24;71.87;99113.58;131569;1254;107299;-76
2023/04/13 02:44:11;;;;;;;30.60;17.10;;;;;;;3.27;71.87;99114.23;131255;1257;107519;-77
2023/04/13 02:47:28;;;;;;;32.50;17.10;;;;;;;3.29;71.82;99121.36;131295;1248;109504;-77
2023/04/13 02:50:36;;;;;;;30.70;16.90;;;;;;;3.29;71.81;99121.08;131273;1254;107444;-76
2023/04/13 02:53:45;;;;;;;30.30;16.50;;;;;;;3.23;71.72;99116.12;131078;1254;106435;-76
2023/04/13 02:56:51;;;;;;;30.90;17.80;;;;;;;3.25;71.83;99119.82;131091;1251;107517;-76
2023/04/13 02:59:56;;;;;;;31.00;16.70;;;;;;;3.27;71.92;99124.02;131074;1253;106386;-76
2023/04/13 03:03:05;;;;;;;28.50;17.50;;;;;;;3.29;71.74;99121.73;131256;1253;107614;-75
2023/04/13 03:06:16;;;;;;;29.00;17.00;;;;;;;3.29;71.99;99118.95;131195;1253;107439;-76
2023/04/13 03:09:28;;;;;;;28.30;16.60;;;;;;;3.27;71.92;99126.29;131165;1253;107448;-76
2023/04/13 03:12:35;;;;;;;28.90;16.80;;;;;;;3.22;71.94;99131.66;131250;1253;107530;-76
2023/04/13 03:15:42;;;;;;;29.50;17.70;;;;;;;3.22;72.14;99142.07;131159;1253;107499;-77
2023/04/13 03:18:50;;;;;;;31.90;17.90;;;;;;;3.20;71.89;99148.59;131134;1253;107417;-77
2023/04/13 03:21:56;;;;;;;28.40;16.30;;;;;;;3.20;72.08;99148.02;131341;1251;107479;-76
2023/04/13 03:25:03;;;;;;;29.40;16.80;;;;;;;3.19;72.05;99146.02;131413;1260;106493;-76
2023/04/13 03:28:13;;;;;;;29.70;16.20;;;;;;;3.21;72.20;99132.48;131353;1263;107396;-76
2023/04/13 03:31:21;;;;;;;35.20;18.10;;;;;;;3.23;72.38;99124.23;131049;1251;107541;-76
2023/04/13 03:34:28;;;;;;;38.70;20.00;;;;;;;3.28;72.69;99122.88;131220;1253;107504;-76
2023/04/13 03:37:41;;;;;;;33.60;18.30;;;;;;;3.33;72.49;99129.30;131275;1254;107500;-74
2023/04/13 03:40:53;;;;;;;35.10;20.20;;;;;;;3.35;72.64;99134.19;131465;1254;106501;-74
2023/04/13 03:43:59;;;;;;;37.50;20.50;;;;;;;3.39;72.56;99135.65;131222;1250;107453;-78
2023/04/13 03:47:08;;;;;;;38.20;22.10;;;;;;;3.42;72.78;99136.21;131180;1251;107946;-77
2023/04/13 03:50:14;;;;;;;46.00;23.30;;;;;;;3.50;72.79;99140.84;131164;1248;106744;-77
2023/04/13 03:53:20;;;;;;;50.90;27.40;;;;;;;3.58;72.83;99139.14;131413;1261;107338;-76
2023/04/13 03:56:26;;;;;;;55.90;30.10;;;;;;;3.62;73.00;99143.14;131403;1254;107437;-74
2023/04/13 03:59:33;;;;;;;55.30;29.30;;;;;;;3.68;73.32;99143.98;131218;1254;107461;-74
2023/04/13 04:02:39;;;;;;;50.90;26.40;;;;;;;3.71;73.28;99148.52;131137;1248;107407;-74
2023/04/13 04:05:45;;;;;;;51.10;27.20;;;;;;;3.72;73.20;99150.46;131404;1253;107433;-74
2023/04/13 04:08:51;;;;;;;48.10;24.30;;;;;;;3.74;73.21;99145.60;131365;1261;106258;-75
2023/04/13 04:12:06;;;;;;;49.60;24.20;;;;;;;3.79;73.34;99149.70;131373;1261;107626;-75
2023/04/13 04:15:18;;;;;;;37.60;19.00;;;;;;;3.88;73.16;99152.20;131383;1254;107691;-75
2023/04/13 04:18:24;;;;;;;47.10;27.20;;;;;;;3.97;73.12;99149.71;131326;1253;107501;-75
2023/04/13 04:21:33;;;;;;;44.10;23.20;;;;;;;4.07;73.19;99145.83;131241;1251;107560;-75
2023/04/13 04:24:41;;;;;;;35.60;20.80;;;;;;;4.19;73.16;99149.13;131371;1256;107504;-75
2023/04/13 04:27:48;;;;;;;37.40;22.30;;;;;;;4.29;73.20;99148.02;131251;1254;107540;-76
2023/04/13 04:30:55;;;;;;;43.20;26.00;;;;;;;4.37;73.35;99144.62;131256;1253;107440;-76
2023/04/13 04:34:02;;;;;;;34.30;20.50;;;;;;;4.49;73.38;99144.95;131328;1254;107435;-77
2023/04/13 04:37:12;;;;;;;30.90;19.50;;;;;;;4.60;73.23;99142.69;131157;1253;108357;-77
2023/04/13 04:40:18;;;;;;;30.00;17.80;;;;;;;4.63;73.08;99139.04;131276;1254;106461;-74
2023/04/13 04:43:25;;;;;;;34.40;20.30;;;;;;;4.66;73.01;99133.73;131216;1253;107429;-76
2023/04/13 04:46:32;;;;;;;32.40;19.70;;;;;;;4.67;72.90;99129.52;131220;1254;107469;-74
2023/04/13 04:49:42;;;;;;;38.70;22.00;;;;;;;4.70;73.14;99129.04;131192;1261;107448;-76
2023/04/13 04:52:48;;;;;;;37.00;21.30;;;;;;;4.74;73.37;99132.77;131100;1251;107509;-76
2023/04/13 04:55:57;;;;;;;31.40;18.80;;;;;;;4.80;73.17;99129.60;131231;1254;108121;-77
2023/04/13 04:59:14;;;;;;;32.40;19.50;;;;;;;4.83;73.46;99130.02;131243;1252;107451;-77
2023/04/13 05:02:31;;;;;;;33.70;21.10;;;;;;;4.88;73.88;99125.65;131320;1251;107567;-76
2023/04/13 05:05:37;;;;;;;36.10;20.90;;;;;;;4.98;74.11;99125.25;131269;1254;106541;-75
2023/04/13 05:08:46;;;;;;;38.20;22.10;;;;;;;5.15;74.15;99122.16;131136;1254;107425;-76
2023/04/13 05:11:52;;;;;;;42.80;25.60;;;;;;;5.36;74.26;99118.78;131083;1261;107508;-76
2023/04/13 05:14:59;;;;;;;51.80;34.50;;;;;;;5.61;74.51;99114.85;131199;1253;107424;-76
2023/04/13 05:18:05;;;;;;;58.20;38.10;;;;;;;5.87;74.98;99112.11;131053;1263;107473;-72
2023/04/13 05:21:11;;;;;;;70.60;42.90;;;;;;;6.13;74.89;99117.14;131204;1254;107653;-72
2023/04/13 05:24:17;;;;;;;55.10;33.70;;;;;;;6.37;75.59;99122.75;131186;1254;106423;-73
2023/04/13 05:27:24;;;;;;;47.50;29.50;;;;;;;6.55;75.58;99127.80;131228;1251;107474;-71
2023/04/13 05:30:33;;;;;;;45.40;26.60;;;;;;;6.74;75.56;99125.20;131390;1255;107447;-71
2023/04/13 05:33:39;;;;;;;39.00;23.40;;;;;;;6.91;75.69;99128.25;131291;1252;107430;-73
2023/04/13 05:36:44;;;;;;;41.30;25.30;;;;;;;7.11;75.74;99115.93;131386;1251;107627;-73
2023/04/13 05:39:52;;;;;;;41.60;25.80;;;;;;;7.31;75.87;99113.68;131125;1253;107609;-73
2023/04/13 05:43:01;;;;;;;35.80;23.30;;;;;;;7.50;76.41;99118.56;131115;1253;107357;-73
2023/04/13 05:46:11;;;;;;;30.30;21.10;;;;;;;7.66;76.18;99117.60;131277;1252;107529;-74
2023/04/13 05:49:17;;;;;;;32.60;21.40;;;;;;;7.79;76.16;99121.19;131326;1254;107528;-71
2023/04/13 05:52:23;;;;;;;29.70;19.60;;;;;;;7.87;76.15;99121.43;131318;1251;107543;-72
2023/04/13 05:55:31;;;;;;;29.20;20.10;;;;;;;7.96;76.03;99121.67;131221;1255;107451;-72
2023/04/13 05:58:40;;;;;;;29.70;20.20;;;;;;;8.03;76.10;99120.96;131238;1253;107441;-72
2023/04/13 06:01:58;;;;;;;28.60;18.30;;;;;;;8.05;76.05;99123.59;131267;1248;107482;-74
2023/04/13 06:05:05;;;;;;;25.70;16.60;;;;;;;8.07;76.00;99126.04;131339;1251;107520;-73
2023/04/13 06:08:13;;;;;;;27.50;18.30;;;;;;;8.12;76.25;99125.95;131531;1254;107395;-73
2023/04/13 06:11:19;;;;;;;29.00;18.30;;;;;;;8.21;76.40;99128.00;131428;1254;107206;-74
2023/04/13 06:14:25;;;;;;;27.30;17.90;;;;;;;8.30;76.29;99134.36;131284;1254;107551;-73
2023/04/13 06:17:31;;;;;;;26.20;17.60;;;;;;;8.37;76.37;99132.73;131373;1252;107422;-72
2023/04/13 06:20:36;;;;;;;25.50;18.30;;;;;;;8.40;76.33;99129.91;131269;1253;107428;-73
2023/04/13 06:23:42;;;;;;;23.80;16.20;;;;;;;8.46;76.41;99133.42;131183;1254;107497;-73
2023/04/13 06:26:58;;;;;;;26.20;18.00;;;;;;;8.50;76.48;99132.02;131219;1255;107378;-73
2023/04/13 06:30:05;;;;;;;26.00;17.90;;;;;;;8.56;76.59;99129.59;131325;1261;107442;-74
2023/04/13 06:33:13;;;;;;;24.40;16.70;;;;;;;8.63;76.63;99126.02;131280;1248;107409;-74
2023/04/13 06:36:19;;;;;;;20.10;12.90;;;;;;;8.71;76.61;99111.12;131273;1253;107483;-73
2023/04/13 06:39:26;;;;;;;24.90;17.10;;;;;;;8.83;76.47;99106.28;131260;1254;107463;-72
2023/04/13 06:42:36;;;;;;;23.90;16.40;;;;;;;9.00;76.81;99105.63;131318;1253;107440;-72
2023/04/13 06:46:03;;;;;;;25.00;16.40;;;;;;;9.24;76.61;99108.07;131263;1260;107617;-71
2023/04/13 06:49:10;;;;;;;25.20;17.10;;;;;;;9.46;76.27;99108.10;131083;1254;107432;-73
2023/04/13 06:52:17;;;;;;;24.40;17.30;;;;;;;9.66;76.35;99118.55;131285;1253;107388;-71
2023/04/13 06:55:23;;;;;;;24.00;16.80;;;;;;;9.87;75.85;99125.13;131296;1254;105834;-73
2023/04/13 06:58:30;;;;;;;23.80;17.00;;;;;;;10.07;75.70;99123.11;131264;1260;107643;-72
2023/04/13 07:01:36;;;;;;;22.90;16.30;;;;;;;10.27;75.62;99120.65;131212;1254;107541;-73
2023/04/13 07:04:42;;;;;;;22.40;16.40;;;;;;;10.41;75.42;99118.56;131288;1254;107562;-72
2023/04/13 07:07:48;;;;;;;22.60;16.60;;;;;;;10.50;75.23;99118.91;131244;1254;108585;-72
2023/04/13 07:10:56;;;;;;;24.50;17.50;;;;;;;10.61;75.08;99119.01;131379;1253;107501;-72
2023/04/13 07:14:08;;;;;;;23.00;16.90;;;;;;;10.74;74.66;99115.58;131336;1252;107396;-72
2023/04/13 07:17:14;;;;;;;23.60;16.30;;;;;;;10.87;74.45;99113.32;131359;1248;107386;-72
2023/04/13 07:20:22;;;;;;;23.20;15.90;;;;;;;10.98;74.53;99114.92;131455;1249;107422;-72
2023/04/13 07:23:27;;;;;;;24.50;15.60;;;;;;;11.11;74.25;99115.21;131419;1253;106518;-72
2023/04/13 07:26:33;;;;;;;20.60;15.10;;;;;;;11.24;74.28;99113.26;131283;1251;107563;-74
2023/04/13 07:29:39;;;;;;;22.10;15.80;;;;;;;11.41;73.63;99105.54;131376;1250;107447;-71
2023/04/13 07:32:47;;;;;;;22.30;16.60;;;;;;;11.54;73.52;99103.23;131462;1254;107370;-71
2023/04/13 07:35:54;;;;;;;22.90;16.40;;;;;;;11.66;73.47;99105.91;131297;1253;108492;-71
2023/04/13 07:39:02;;;;;;;20.20;14.50;;;;;;;11.76;73.45;99107.96;131440;1250;107391;-72
2023/04/13 07:42:09;;;;;;;20.60;14.60;;;;;;;11.83;72.66;99114.33;131543;1250;107360;-71
2023/04/13 07:45:22;;;;;;;21.00;15.00;;;;;;;11.90;72.52;99115.98;131379;1248;107449;-72
2023/04/13 07:48:28;;;;;;;18.60;13.50;;;;;;;11.99;72.50;99122.05;131335;1253;107508;-71
2023/04/13 07:51:36;;;;;;;16.60;13.30;;;;;;;12.09;72.28;99122.92;131155;1255;107469;-72
2023/04/13 07:54:42;;;;;;;19.10;14.00;;;;;;;12.18;71.91;99120.88;131224;1253;107518;-71
2023/04/13 07:57:48;;;;;;;16.90;12.20;;;;;;;12.25;71.71;99120.08;131304;1253;107532;-72
2023/04/13 08:00:54;;;;;;;17.30;12.60;;;;;;;12.31;71.53;99120.17;131282;1250;107437;-71
2023/04/13 08:04:00;;;;;;;17.40;12.50;;;;;;;12.36;71.69;99115.27;131262;1253;106444;-71
2023/04/13 08:07:07;;;;;;;13.10;10.30;;;;;;;12.42;70.96;99113.31;131333;1261;107417;-72
2023/04/13 08:10:12;;;;;;;17.00;11.60;;;;;;;12.47;70.47;99119.02;131423;1253;108587;-72
2023/04/13 08:13:18;;;;;;;16.00;12.10;;;;;;;12.55;70.60;99124.61;131396;1253;107430;-71
2023/04/13 08:16:24;;;;;;;15.90;11.50;;;;;;;12.63;70.47;99123.53;131169;1261;107491;-72
2023/04/13 08:19:29;;;;;;;14.50;11.10;;;;;;;12.72;69.44;99122.89;131451;1249;107252;-72
2023/04/13 08:22:36;;;;;;;16.10;13.00;;;;;;;12.77;69.63;99119.88;131463;1252;107410;-72
2023/04/13 08:25:43;;;;;;;24.40;17.50;;;;;;;12.84;69.73;99120.23;131534;1253;107363;-72
2023/04/13 08:28:51;;;;;;;19.10;14.60;;;;;;;12.94;69.47;99122.42;131488;1254;107497;-72
2023/04/13 08:31:57;;;;;;;20.60;16.30;;;;;;;13.04;68.94;99118.37;131179;1251;108720;-73
2023/04/13 08:35:06;;;;;;;16.40;13.20;;;;;;;13.14;68.65;99119.05;131373;1248;107453;-74
2023/04/13 08:38:12;;;;;;;41.20;20.40;;;;;;;13.22;68.50;99116.90;131436;1254;107500;-72
2023/04/13 08:41:23;;;;;;;28.10;21.40;;;;;;;13.28;68.28;99125.60;131579;1254;107381;-72
2023/04/13 08:44:31;;;;;;;22.70;17.20;;;;;;;13.32;68.23;99127.70;131276;1250;107442;-72
2023/04/13 08:47:39;;;;;;;118.20;45.70;;;;;;;13.36;67.08;99129.86;131379;1253;107272;-71
2023/04/13 08:50:46;;;;;;;43.00;20.30;;;;;;;13.40;67.35;99126.70;131285;1253;107489;-72
2023/04/13 08:53:53;;;;;;;16.20;11.40;;;;;;;13.50;67.68;99120.81;131297;1250;107394;-72
2023/04/13 08:57:02;;;;;;;16.10;10.50;;;;;;;13.57;66.85;99123.20;131369;1252;107559;-72
2023/04/13 09:00:16;;;;;;;11.80;8.50;;;;;;;13.62;66.88;99120.20;131282;1250;107508;-72
2023/04/13 09:03:29;;;;;;;11.20;8.70;;;;;;;13.70;66.14;99118.29;131235;1254;107539;-72
2023/04/13 09:06:34;;;;;;;;;;;;;;;13.76;66.70;99118.23;131148;1255;107515;-72
2023/04/13 09:09:44;;;;;;;15.10;10.50;;;;;;;13.83;66.17;99124.02;131141;1257;107511;-72
2023/04/13 09:12:50;;;;;;;16.70;11.70;;;;;;;13.87;65.56;99120.12;131335;1253;107423;-72
2023/04/13 09:15:56;;;;;;;12.10;10.00;;;;;;;13.88;65.33;99121.80;131345;1254;107987;-72
2023/04/13 09:19:35;;;;;;;13.40;9.10;;;;;;;13.98;65.53;99113.74;131383;1252;107497;-72
2023/04/13 09:22:43;;;;;;;11.00;9.50;;;;;;;14.05;64.97;99109.84;131402;1253;107435;-72
2023/04/13 09:25:49;;;;;;;10.50;8.60;;;;;;;14.06;64.75;99109.30;131525;1254;107519;-72
2023/04/13 09:28:57;;;;;;;11.20;8.60;;;;;;;14.05;64.86;99102.57;131440;1254;107481;-70
2023/04/13 09:32:06;;;;;;;11.00;9.20;;;;;;;14.09;64.53;99103.69;131608;1254;107424;-72
2023/04/13 09:35:12;;;;;;;9.80;8.60;;;;;;;14.11;64.27;99103.83;131188;1253;107598;-71
2023/04/13 09:38:17;;;;;;;10.10;8.70;;;;;;;14.15;64.40;99103.09;131152;1264;107373;-71
2023/04/13 09:41:37;;;;;;;11.90;8.60;;;;;;;14.18;63.44;99104.16;131256;1248;107529;-72
2023/04/13 09:44:43;;;;;;;12.90;9.00;;;;;;;14.17;63.29;99099.66;131351;1253;107327;-72
2023/04/13 09:47:49;;;;;;;10.30;8.40;;;;;;;14.17;63.53;99099.50;131279;1253;105488;-71
2023/04/13 09:51:03;;;;;;;9.10;7.20;;;;;;;14.16;62.96;99103.13;131361;1251;107495;-71
2023/04/13 09:54:10;;;;;;;11.40;9.00;;;;;;;14.16;63.02;99102.51;131502;1252;106629;-71
2023/04/13 09:57:24;;;;;;;11.30;9.10;;;;;;;14.18;62.72;99104.11;131294;1253;107550;-71
2023/04/13 10:00:31;;;;;;;9.60;8.50;;;;;;;14.23;62.98;99106.35;131526;1252;106830;-71
2023/04/13 10:03:38;;;;;;;9.00;7.90;;;;;;;14.26;62.65;99106.10;131411;1257;105909;-72
2023/04/13 10:06:45;;;;;;;8.80;7.60;;;;;;;14.28;61.79;99104.73;131394;1250;107338;-71
2023/04/13 10:09:52;;;;;;;8.40;6.80;;;;;;;14.28;61.58;99101.85;131467;1253;107255;-71
2023/04/13 10:13:01;;;;;;;7.50;6.10;;;;;;;14.31;61.09;99103.67;131416;1248;108102;-71
2023/04/13 10:16:21;;;;;;;7.90;7.00;;;;;;;14.32;61.13;99104.04;131341;1253;107759;-72
2023/04/13 10:19:32;;;;;;;8.90;7.40;;;;;;;14.40;61.18;99105.87;131302;1253;107620;-72
2023/04/13 10:22:40;;;;;;;8.30;7.30;;;;;;;14.51;61.22;99105.84;131331;1250;107508;-71
2023/04/13 10:25:51;;;;;;;9.30;7.40;;;;;;;14.64;60.13;99100.52;131428;1253;107448;-71
2023/04/13 10:28:58;;;;;;;6.80;5.80;;;;;;;14.71;59.68;99095.77;131429;1252;106863;-73
2023/04/13 10:32:05;;;;;;;6.90;5.50;;;;;;;14.82;59.28;99098.27;131370;1250;107500;-73
2023/04/13 10:35:15;;;;;;;6.70;5.80;;;;;;;14.93;59.16;99092.42;131388;1253;107597;-71
2023/04/13 10:38:20;;;;;;;6.30;5.60;;;;;;;15.03;59.11;99090.79;131383;1253;107795;-72
2023/04/13 10:41:27;;;;;;;6.20;5.50;;;;;;;15.08;58.98;99089.98;131333;1253;107341;-72
2023/04/13 10:44:44;;;;;;;6.10;5.10;;;;;;;15.14;58.71;99088.27;131465;1254;107259;-71
2023/04/13 10:47:50;;;;;;;4.90;4.20;;;;;;;15.21;58.59;99083.09;131376;1253;107399;-71
2023/04/13 10:51:00;;;;;;;5.10;4.00;;;;;;;15.35;57.89;99084.61;131183;1251;107510;-72
2023/04/13 10:54:07;;;;;;;6.10;4.80;;;;;;;15.50;58.07;99085.83;131258;1253;107533;-72
2023/04/13 10:57:13;;;;;;;5.10;3.50;;;;;;;15.60;57.61;99085.73;131431;1253;107401;-72
2023/04/13 11:00:21;;;;;;;4.90;3.90;;;;;;;15.66;57.27;99088.11;131394;1248;108103;-72
2023/04/13 11:03:29;;;;;;;5.10;4.10;;;;;;;15.74;56.76;99092.27;131258;1253;105783;-72
2023/04/13 11:06:38;;;;;;;5.50;4.40;;;;;;;15.78;56.83;99086.27;131235;1253;107496;-72
2023/04/13 11:09:46;;;;;;;4.90;4.20;;;;;;;15.84;57.26;99092.59;131249;1253;107575;-72
2023/04/13 11:12:53;;;;;;;4.60;3.80;;;;;;;15.88;56.97;99090.80;131284;1254;107545;-72
2023/04/13 11:16:06;;;;;;;5.40;4.30;;;;;;;15.90;56.52;99093.39;131492;1263;107519;-72
2023/04/13 11:19:12;;;;;;;4.40;3.50;;;;;;;15.89;56.33;99096.15;131390;1251;108659;-72
2023/04/13 11:22:18;;;;;;;4.70;3.60;;;;;;;15.88;55.44;99092.23;131396;1253;107228;-72
2023/04/13 11:25:24;;;;;;;3.90;3.50;;;;;;;15.91;55.86;99091.67;131479;1251;107222;-72
2023/04/13 11:28:39;;;;;;;3.80;3.20;;;;;;;15.93;55.56;99091.66;131356;1253;107508;-72
2023/04/13 11:31:45;;;;;;;5.50;4.80;;;;;;;15.93;55.05;99095.72;131283;1253;107555;-72
2023/04/13 11:34:51;;;;;;;6.00;4.60;;;;;;;15.89;55.29;99099.70;131319;1252;108558;-73
2023/04/13 11:37:58;;;;;;;6.30;4.50;;;;;;;15.83;55.15;99104.59;131188;1253;107521;-74
2023/04/13 11:41:05;;;;;;;5.90;4.90;;;;;;;15.83;55.14;99103.23;131431;1253;107669;-72
2023/04/13 11:44:12;;;;;;;6.10;4.90;;;;;;;15.89;54.82;99100.55;131524;1249;107612;-72
2023/04/13 11:47:20;;;;;;;6.10;4.80;;;;;;;15.92;54.69;99096.30;131448;1253;107447;-72
2023/04/13 11:50:26;;;;;;;6.40;4.20;;;;;;;15.96;54.33;99093.14;131284;1253;107444;-72
2023/04/13 11:53:35;;;;;;;5.20;4.30;;;;;;;15.95;53.83;99096.41;131532;1254;107391;-72
2023/04/13 11:56:41;;;;;;;5.60;4.80;;;;;;;15.96;53.91;99097.94;131724;1253;106000;-72
2023/04/13 11:59:47;;;;;;;5.10;4.60;;;;;;;16.00;53.71;99096.67;131563;1250;107380;-72
2023/04/13 12:02:54;;;;;;;5.20;4.50;;;;;;;16.02;53.47;99090.37;131432;1253;107425;-72
2023/04/13 12:06:03;;;;;;;6.70;4.30;;;;;;;16.06;53.25;99087.98;131402;1251;107597;-72
2023/04/13 12:09:09;;;;;;;5.60;4.20;;;;;;;16.17;52.24;99085.88;131455;1249;107263;-71
2023/04/13 12:12:20;;;;;;;6.40;4.40;;;;;;;16.29;53.16;99093.23;131515;1253;106513;-72
2023/04/13 12:15:27;;;;;;;6.60;4.80;;;;;;;16.34;53.04;99088.20;131646;1253;107558;-72
2023/04/13 12:18:32;;;;;;;5.20;4.20;;;;;;;16.43;53.32;99088.38;131323;1253;107538;-71
2023/04/13 12:21:38;;;;;;;5.40;4.10;;;;;;;16.50;52.35;99083.84;131281;1253;107348;-71
2023/04/13 12:24:43;;;;;;;5.30;4.00;;;;;;;16.52;51.81;99085.84;131386;1254;107190;-71
2023/04/13 12:27:51;;;;;;;3.90;3.40;;;;;;;16.55;51.61;99088.73;131268;1253;107440;-72
2023/04/13 12:31:03;;;;;;;4.20;3.60;;;;;;;16.58;51.32;99087.58;131552;1253;106709;-71
2023/04/13 12:34:09;;;;;;;4.30;3.70;;;;;;;16.58;51.03;99089.05;131223;1253;116369;-72
2023/04/13 12:37:14;;;;;;;4.30;3.30;;;;;;;16.58;51.05;99081.29;131188;1253;107488;-71
2023/04/13 12:40:20;;;;;;;5.20;3.90;;;;;;;16.54;48.67;99075.89;131253;1263;107482;-72
2023/04/13 12:43:26;;;;;;;3.70;2.90;;;;;;;16.46;50.21;99073.55;131266;1251;107586;-72
2023/04/13 12:46:32;;;;;;;3.80;2.90;;;;;;;16.44;50.00;99074.11;131297;1253;107534;-71
2023/04/13 12:49:37;;;;;;;3.70;3.20;;;;;;;16.41;49.79;99078.45;131145;1253;107516;-71
2023/04/13 12:52:44;;;;;;;4.10;3.30;;;;;;;16.37;49.54;99075.83;131323;1253;105949;-71
2023/04/13 12:55:49;;;;;;;3.80;3.30;;;;;;;16.32;48.43;99075.63;131328;1264;105720;-72
2023/04/13 12:58:55;;;;;;;4.80;3.50;;;;;;;16.29;49.12;99074.81;131221;1253;107582;-72
2023/04/13 13:02:00;;;;;;;4.60;3.60;;;;;;;16.23;48.71;99077.80;131144;1249;107516;-73
2023/04/13 13:05:08;;;;;;;4.60;3.70;;;;;;;16.16;49.02;99076.07;131109;1253;107624;-72
2023/04/13 13:08:13;;;;;;;4.90;3.70;;;;;;;16.13;49.10;99075.06;131336;1250;107362;-72
2023/04/13 13:11:19;;;;;;;3.80;3.40;;;;;;;16.10;48.87;99072.64;131057;1254;107445;-71
2023/04/13 13:14:25;;;;;;;4.10;3.70;;;;;;;16.05;49.14;99073.02;131442;1256;107270;-72
2023/04/13 13:17:30;;;;;;;4.60;3.80;;;;;;;16.04;48.79;99073.91;131340;1253;107885;-74
2023/04/13 13:20:39;;;;;;;4.40;3.70;;;;;;;15.97;46.35;99064.41;131197;1251;109374;-72
2023/04/13 13:23:45;;;;;;;4.90;3.60;;;;;;;15.89;47.46;99064.80;131175;1253;106258;-74
2023/04/13 13:26:50;;;;;;;4.20;3.50;;;;;;;15.90;47.90;99059.37;131238;1250;107269;-74
2023/04/13 13:29:56;;;;;;;4.90;3.40;;;;;;;15.94;47.67;99057.56;131283;1253;107601;-71
2023/04/13 13:33:02;;;;;;;3.80;3.30;;;;;;;15.93;47.47;99053.72;131310;1253;107610;-73
2023/04/13 13:36:08;;;;;;;3.60;2.80;;;;;;;15.90;46.70;99054.65;131290;1253;106519;-73
2023/04/13 13:39:13;;;;;;;4.00;2.90;;;;;;;15.88;46.57;99059.31;131240;1251;108520;-73
2023/04/13 13:42:19;;;;;;;4.10;2.90;;;;;;;15.92;47.24;99065.90;131408;1251;107234;-73
2023/04/13 13:45:24;;;;;;;7.10;2.80;;;;;;;15.94;47.10;99064.85;131356;1255;107514;-73
2023/04/13 13:48:32;;;;;;;5.60;4.10;;;;;;;15.90;46.64;99067.06;131023;1253;107426;-73
2023/04/13 13:52:01;;;;;;;5.50;3.80;;;;;;;15.83;46.55;99065.98;131106;1251;107541;-73
2023/04/13 13:55:10;;;;;;;4.40;3.30;;;;;;;15.76;46.66;99064.58;131136;1254;107488;-73
2023/04/13 13:58:16;;;;;;;4.30;3.50;;;;;;;15.67;46.66;99062.94;131116;1251;107359;-73
2023/04/13 14:01:21;;;;;;;4.80;3.20;;;;;;;15.63;46.79;99061.19;131393;1250;107559;-73
2023/04/13 14:04:26;;;;;;;5.90;4.40;;;;;;;15.59;47.20;99063.63;131228;1253;106669;-74
2023/04/13 14:07:32;;;;;;;5.10;4.60;;;;;;;15.54;47.21;99067.61;131249;1252;107270;-73
2023/04/13 14:10:38;;;;;;;6.80;5.70;;;;;;;15.48;47.03;99069.42;131198;1253;106522;-73
2023/04/13 14:13:43;;;;;;;4.60;3.20;;;;;;;15.42;47.18;99069.73;131200;1253;105998;-73
2023/04/13 14:16:49;;;;;;;5.40;3.00;;;;;;;15.38;47.18;99077.94;131227;1253;107509;-75